sensor_id;sensor_type;location;lat;lon;timestamp;P1;durP1;ratioP1;P2;durP2;ratioP2
11346;SDS011;5728;42.722;23.258;2022-12-28T00:01:05;10.93;;;8.70;;
11346;SDS011;5728;42.722;23.258;2022-12-28T00:03:32;11.23;;;8.20;;
11346;SDS011;5728;42.722;23.258;2022-12-28T00:05:59;11.87;;;7.57;;
11346;SDS011;5728;42.722;23.258;2022-12-28T00:08:26;10.97;;;8.20;;
11346;SDS011;5728;42.722;23.258;2022-12-28T00:10:58;8.67;;;7.13;;
11346;SDS011;5728;42.722;23.258;2022-12-28T00:13:25;11.00;;;8.13;;
11346;SDS011;5728;42.722;23.258;2022-12-28T00:15:52;11.47;;;7.13;;
11346;SDS011;5728;42.722;23.258;2022-12-28T00:18:20;9.50;;;7.33;;
11346;SDS011;5728;42.722;23.258;2022-12-28T00:20:55;9.57;;;6.67;;
11346;SDS011;5728;42.722;23.258;2022-12-28T00:23:22;10.30;;;7.33;;
11346;SDS011;5728;42.722;23.258;2022-12-28T00:25:49;9.33;;;6.43;;
11346;SDS011;5728;42.722;23.258;2022-12-28T00:28:16;8.80;;;7.03;;
11346;SDS011;5728;42.722;23.258;2022-12-28T00:30:42;11.33;;;7.30;;
11346;SDS011;5728;42.722;23.258;2022-12-28T00:33:09;13.93;;;8.23;;
11346;SDS011;5728;42.722;23.258;2022-12-28T00:35:37;9.73;;;7.13;;
11346;SDS011;5728;42.722;23.258;2022-12-28T00:38:04;10.23;;;8.07;;
11346;SDS011;5728;42.722;23.258;2022-12-28T00:40:31;8.90;;;7.20;;
11346;SDS011;5728;42.722;23.258;2022-12-28T00:42:58;9.37;;;7.53;;
11346;SDS011;5728;42.722;23.258;2022-12-28T00:45:25;12.00;;;8.40;;
11346;SDS011;5728;42.722;23.258;2022-12-28T00:47:51;11.97;;;8.33;;
11346;SDS011;5728;42.722;23.258;2022-12-28T00:50:18;13.03;;;8.47;;
11346;SDS011;5728;42.722;23.258;2022-12-28T00:52:46;11.90;;;8.93;;
11346;SDS011;5728;42.722;23.258;2022-12-28T00:55:13;12.13;;;8.90;;
11346;SDS011;5728;42.722;23.258;2022-12-28T00:57:40;16.53;;;10.07;;
11346;SDS011;5728;42.722;23.258;2022-12-28T01:00:07;12.83;;;9.20;;
11346;SDS011;5728;42.722;23.258;2022-12-28T01:02:35;12.30;;;9.13;;
11346;SDS011;5728;42.722;23.258;2022-12-28T01:05:01;12.93;;;9.50;;
11346;SDS011;5728;42.722;23.258;2022-12-28T01:07:28;15.80;;;11.17;;
11346;SDS011;5728;42.722;23.258;2022-12-28T01:09:57;14.70;;;10.43;;
11346;SDS011;5728;42.722;23.258;2022-12-28T01:12:23;15.80;;;11.57;;
11346;SDS011;5728;42.722;23.258;2022-12-28T01:14:50;14.00;;;10.80;;
11346;SDS011;5728;42.722;23.258;2022-12-28T01:17:17;14.57;;;11.77;;
11346;SDS011;5728;42.722;23.258;2022-12-28T01:19:43;15.43;;;11.90;;
11346;SDS011;5728;42.722;23.258;2022-12-28T01:22:11;14.87;;;10.20;;
11346;SDS011;5728;42.722;23.258;2022-12-28T01:24:38;15.23;;;10.73;;
11346;SDS011;5728;42.722;23.258;2022-12-28T01:27:06;17.67;;;12.50;;
11346;SDS011;5728;42.722;23.258;2022-12-28T01:29:33;15.53;;;12.00;;
11346;SDS011;5728;42.722;23.258;2022-12-28T01:32:00;16.13;;;12.07;;
11346;SDS011;5728;42.722;23.258;2022-12-28T01:34:26;17.43;;;13.00;;
11346;SDS011;5728;42.722;23.258;2022-12-28T01:36:53;18.73;;;12.87;;
11346;SDS011;5728;42.722;23.258;2022-12-28T01:39:20;18.63;;;12.40;;
11346;SDS011;5728;42.722;23.258;2022-12-28T01:41:46;20.03;;;13.93;;
11346;SDS011;5728;42.722;23.258;2022-12-28T01:47:20;19.33;;;13.53;;
11346;SDS011;5728;42.722;23.258;2022-12-28T01:49:51;19.37;;;13.60;;
11346;SDS011;5728;42.722;23.258;2022-12-28T01:52:23;19.10;;;13.83;;
11346;SDS011;5728;42.722;23.258;2022-12-28T01:54:55;20.93;;;14.53;;
11346;SDS011;5728;42.722;23.258;2022-12-28T01:57:26;20.10;;;13.80;;
11346;SDS011;5728;42.722;23.258;2022-12-28T01:59:59;19.77;;;14.40;;
11346;SDS011;5728;42.722;23.258;2022-12-28T02:02:29;19.53;;;13.63;;
11346;SDS011;5728;42.722;23.258;2022-12-28T02:04:56;20.30;;;13.87;;
11346;SDS011;5728;42.722;23.258;2022-12-28T02:07:28;20.00;;;13.63;;
11346;SDS011;5728;42.722;23.258;2022-12-28T02:10:01;22.77;;;12.50;;
11346;SDS011;5728;42.722;23.258;2022-12-28T02:12:28;18.70;;;13.83;;
11346;SDS011;5728;42.722;23.258;2022-12-28T02:14:57;17.90;;;13.13;;
11346;SDS011;5728;42.722;23.258;2022-12-28T02:17:23;20.63;;;14.73;;
11346;SDS011;5728;42.722;23.258;2022-12-28T02:19:50;22.13;;;15.17;;
11346;SDS011;5728;42.722;23.258;2022-12-28T02:22:28;20.47;;;13.90;;
11346;SDS011;5728;42.722;23.258;2022-12-28T02:25:17;19.57;;;14.27;;
11346;SDS011;5728;42.722;23.258;2022-12-28T02:28:07;21.40;;;14.60;;
11346;SDS011;5728;42.722;23.258;2022-12-28T02:30:52;20.40;;;13.83;;
11346;SDS011;5728;42.722;23.258;2022-12-28T02:33:28;19.40;;;14.10;;
11346;SDS011;5728;42.722;23.258;2022-12-28T02:36:02;19.10;;;13.57;;
11346;SDS011;5728;42.722;23.258;2022-12-28T02:38:35;18.70;;;13.57;;
11346;SDS011;5728;42.722;23.258;2022-12-28T02:41:06;21.30;;;14.30;;
11346;SDS011;5728;42.722;23.258;2022-12-28T02:43:35;20.33;;;13.20;;
11346;SDS011;5728;42.722;23.258;2022-12-28T02:46:08;16.10;;;11.80;;
11346;SDS011;5728;42.722;23.258;2022-12-28T02:48:54;17.27;;;12.03;;
11346;SDS011;5728;42.722;23.258;2022-12-28T02:51:56;17.07;;;11.73;;
11346;SDS011;5728;42.722;23.258;2022-12-28T02:57:51;14.63;;;9.80;;
11346;SDS011;5728;42.722;23.258;2022-12-28T03:00:45;13.93;;;9.30;;
11346;SDS011;5728;42.722;23.258;2022-12-28T03:03:24;17.07;;;10.07;;
11346;SDS011;5728;42.722;23.258;2022-12-28T03:06:04;13.30;;;8.77;;
11346;SDS011;5728;42.722;23.258;2022-12-28T03:08:56;11.43;;;8.63;;
11346;SDS011;5728;42.722;23.258;2022-12-28T03:11:31;13.07;;;8.20;;
11346;SDS011;5728;42.722;23.258;2022-12-28T03:14:05;11.03;;;8.10;;
11346;SDS011;5728;42.722;23.258;2022-12-28T03:16:35;12.07;;;8.07;;
11346;SDS011;5728;42.722;23.258;2022-12-28T03:19:19;12.20;;;7.77;;
11346;SDS011;5728;42.722;23.258;2022-12-28T03:22:06;8.00;;;6.30;;
11346;SDS011;5728;42.722;23.258;2022-12-28T03:24:52;10.80;;;6.87;;
11346;SDS011;5728;42.722;23.258;2022-12-28T03:27:37;7.90;;;6.80;;
11346;SDS011;5728;42.722;23.258;2022-12-28T03:30:22;9.43;;;5.93;;
11346;SDS011;5728;42.722;23.258;2022-12-28T03:33:07;8.07;;;5.97;;
11346;SDS011;5728;42.722;23.258;2022-12-28T03:35:39;7.67;;;5.40;;
11346;SDS011;5728;42.722;23.258;2022-12-28T03:38:11;8.43;;;6.50;;
11346;SDS011;5728;42.722;23.258;2022-12-28T03:40:52;8.33;;;6.07;;
11346;SDS011;5728;42.722;23.258;2022-12-28T03:43:26;9.23;;;5.97;;
11346;SDS011;5728;42.722;23.258;2022-12-28T03:46:06;10.07;;;5.87;;
11346;SDS011;5728;42.722;23.258;2022-12-28T03:48:38;9.90;;;6.47;;
11346;SDS011;5728;42.722;23.258;2022-12-28T03:51:07;9.03;;;5.80;;
11346;SDS011;5728;42.722;23.258;2022-12-28T03:53:36;7.17;;;5.63;;
11346;SDS011;5728;42.722;23.258;2022-12-28T03:56:06;6.77;;;5.27;;
11346;SDS011;5728;42.722;23.258;2022-12-28T03:58:35;9.30;;;6.30;;
11346;SDS011;5728;42.722;23.258;2022-12-28T04:01:01;7.00;;;5.13;;
11346;SDS011;5728;42.722;23.258;2022-12-28T04:03:28;6.87;;;5.20;;
11346;SDS011;5728;42.722;23.258;2022-12-28T04:05:55;6.37;;;4.70;;
11346;SDS011;5728;42.722;23.258;2022-12-28T04:08:23;5.87;;;4.67;;
11346;SDS011;5728;42.722;23.258;2022-12-28T04:10:51;7.13;;;5.00;;
11346;SDS011;5728;42.722;23.258;2022-12-28T04:13:17;9.50;;;5.70;;
11346;SDS011;5728;42.722;23.258;2022-12-28T04:15:53;10.23;;;5.63;;
11346;SDS011;5728;42.722;23.258;2022-12-28T04:18:21;6.47;;;5.10;;
11346;SDS011;5728;42.722;23.258;2022-12-28T04:20:47;7.43;;;5.07;;
11346;SDS011;5728;42.722;23.258;2022-12-28T04:23:14;7.40;;;4.97;;
11346;SDS011;5728;42.722;23.258;2022-12-28T04:25:42;5.70;;;4.43;;
11346;SDS011;5728;42.722;23.258;2022-12-28T04:28:09;5.37;;;4.40;;
11346;SDS011;5728;42.722;23.258;2022-12-28T04:30:35;6.83;;;5.53;;
11346;SDS011;5728;42.722;23.258;2022-12-28T04:33:02;6.83;;;4.63;;
11346;SDS011;5728;42.722;23.258;2022-12-28T04:35:30;7.50;;;4.87;;
11346;SDS011;5728;42.722;23.258;2022-12-28T04:37:57;6.70;;;4.47;;
11346;SDS011;5728;42.722;23.258;2022-12-28T04:40:24;6.30;;;5.00;;
11346;SDS011;5728;42.722;23.258;2022-12-28T04:42:52;6.60;;;5.10;;
11346;SDS011;5728;42.722;23.258;2022-12-28T04:45:19;7.37;;;5.60;;
11346;SDS011;5728;42.722;23.258;2022-12-28T04:47:45;7.37;;;5.07;;
11346;SDS011;5728;42.722;23.258;2022-12-28T04:50:12;7.67;;;5.10;;
11346;SDS011;5728;42.722;23.258;2022-12-28T04:52:39;8.53;;;5.13;;
11346;SDS011;5728;42.722;23.258;2022-12-28T04:55:06;5.93;;;4.43;;
11346;SDS011;5728;42.722;23.258;2022-12-28T04:57:33;7.40;;;5.13;;
11346;SDS011;5728;42.722;23.258;2022-12-28T05:00:01;9.73;;;5.07;;
11346;SDS011;5728;42.722;23.258;2022-12-28T05:02:29;6.30;;;4.57;;
11346;SDS011;5728;42.722;23.258;2022-12-28T05:04:56;6.00;;;4.07;;
11346;SDS011;5728;42.722;23.258;2022-12-28T05:07:23;6.87;;;4.57;;
11346;SDS011;5728;42.722;23.258;2022-12-28T05:09:50;11.47;;;5.30;;
11346;SDS011;5728;42.722;23.258;2022-12-28T05:12:16;6.13;;;4.30;;
11346;SDS011;5728;42.722;23.258;2022-12-28T05:14:43;5.53;;;3.90;;
11346;SDS011;5728;42.722;23.258;2022-12-28T05:17:11;6.37;;;4.30;;
11346;SDS011;5728;42.722;23.258;2022-12-28T05:19:38;6.93;;;4.60;;
11346;SDS011;5728;42.722;23.258;2022-12-28T05:22:05;5.90;;;4.23;;
11346;SDS011;5728;42.722;23.258;2022-12-28T05:24:35;5.93;;;4.37;;
11346;SDS011;5728;42.722;23.258;2022-12-28T05:27:02;5.97;;;4.27;;
11346;SDS011;5728;42.722;23.258;2022-12-28T05:29:29;5.40;;;3.87;;
11346;SDS011;5728;42.722;23.258;2022-12-28T05:31:56;4.67;;;3.60;;
11346;SDS011;5728;42.722;23.258;2022-12-28T05:34:24;4.73;;;3.73;;
11346;SDS011;5728;42.722;23.258;2022-12-28T05:36:51;7.77;;;4.90;;
11346;SDS011;5728;42.722;23.258;2022-12-28T05:39:17;5.63;;;4.43;;
11346;SDS011;5728;42.722;23.258;2022-12-28T05:41:44;5.80;;;4.63;;
11346;SDS011;5728;42.722;23.258;2022-12-28T05:44:11;6.20;;;4.13;;
11346;SDS011;5728;42.722;23.258;2022-12-28T05:46:38;7.60;;;4.90;;
11346;SDS011;5728;42.722;23.258;2022-12-28T05:49:06;4.67;;;4.10;;
11346;SDS011;5728;42.722;23.258;2022-12-28T05:51:35;5.63;;;4.20;;
11346;SDS011;5728;42.722;23.258;2022-12-28T05:54:01;6.27;;;4.37;;
11346;SDS011;5728;42.722;23.258;2022-12-28T05:56:30;6.47;;;4.37;;
11346;SDS011;5728;42.722;23.258;2022-12-28T05:58:58;5.53;;;4.37;;
11346;SDS011;5728;42.722;23.258;2022-12-28T06:01:27;8.20;;;5.33;;
11346;SDS011;5728;42.722;23.258;2022-12-28T06:03:55;9.40;;;5.13;;
11346;SDS011;5728;42.722;23.258;2022-12-28T06:06:24;5.90;;;4.10;;
11346;SDS011;5728;42.722;23.258;2022-12-28T06:08:52;8.43;;;5.13;;
11346;SDS011;5728;42.722;23.258;2022-12-28T06:11:21;6.40;;;4.07;;
11346;SDS011;5728;42.722;23.258;2022-12-28T06:13:48;7.60;;;4.33;;
11346;SDS011;5728;42.722;23.258;2022-12-28T06:16:17;9.90;;;5.07;;
11346;SDS011;5728;42.722;23.258;2022-12-28T06:18:45;5.53;;;4.20;;
11346;SDS011;5728;42.722;23.258;2022-12-28T06:21:13;7.67;;;4.77;;
11346;SDS011;5728;42.722;23.258;2022-12-28T06:23:41;8.17;;;5.30;;
11346;SDS011;5728;42.722;23.258;2022-12-28T06:26:11;4.93;;;4.10;;
11346;SDS011;5728;42.722;23.258;2022-12-28T06:28:39;7.70;;;4.67;;
11346;SDS011;5728;42.722;23.258;2022-12-28T06:31:09;6.93;;;4.93;;
11346;SDS011;5728;42.722;23.258;2022-12-28T06:33:37;7.03;;;4.57;;
11346;SDS011;5728;42.722;23.258;2022-12-28T06:36:05;7.97;;;4.60;;
11346;SDS011;5728;42.722;23.258;2022-12-28T06:38:37;6.63;;;4.90;;
11346;SDS011;5728;42.722;23.258;2022-12-28T06:41:04;6.97;;;4.93;;
11346;SDS011;5728;42.722;23.258;2022-12-28T06:43:33;5.60;;;4.13;;
11346;SDS011;5728;42.722;23.258;2022-12-28T06:46:01;6.10;;;4.53;;
11346;SDS011;5728;42.722;23.258;2022-12-28T06:48:29;8.90;;;4.33;;
11346;SDS011;5728;42.722;23.258;2022-12-28T06:50:56;9.23;;;5.70;;
11346;SDS011;5728;42.722;23.258;2022-12-28T06:53:24;8.93;;;6.13;;
11346;SDS011;5728;42.722;23.258;2022-12-28T06:55:53;7.17;;;4.43;;
11346;SDS011;5728;42.722;23.258;2022-12-28T06:58:20;6.82;;;5.00;;
11346;SDS011;5728;42.722;23.258;2022-12-28T07:00:49;8.10;;;5.33;;
11346;SDS011;5728;42.722;23.258;2022-12-28T07:03:16;6.00;;;4.67;;
11346;SDS011;5728;42.722;23.258;2022-12-28T07:05:43;10.48;;;5.47;;
11346;SDS011;5728;42.722;23.258;2022-12-28T07:08:10;7.13;;;4.70;;
11346;SDS011;5728;42.722;23.258;2022-12-28T07:10:36;7.93;;;4.60;;
11346;SDS011;5728;42.722;23.258;2022-12-28T07:13:03;7.70;;;4.23;;
11346;SDS011;5728;42.722;23.258;2022-12-28T07:15:30;6.63;;;4.83;;
11346;SDS011;5728;42.722;23.258;2022-12-28T07:17:58;10.93;;;5.27;;
11346;SDS011;5728;42.722;23.258;2022-12-28T07:20:25;6.93;;;5.20;;
11346;SDS011;5728;42.722;23.258;2022-12-28T07:22:52;5.73;;;4.70;;
11346;SDS011;5728;42.722;23.258;2022-12-28T07:25:19;6.30;;;4.60;;
11346;SDS011;5728;42.722;23.258;2022-12-28T07:27:46;7.07;;;4.57;;
11346;SDS011;5728;42.722;23.258;2022-12-28T07:30:13;6.63;;;4.63;;
11346;SDS011;5728;42.722;23.258;2022-12-28T07:32:40;6.07;;;4.43;;
11346;SDS011;5728;42.722;23.258;2022-12-28T07:35:08;11.43;;;4.67;;
11346;SDS011;5728;42.722;23.258;2022-12-28T07:37:35;10.83;;;4.77;;
11346;SDS011;5728;42.722;23.258;2022-12-28T07:40:02;6.67;;;4.83;;
11346;SDS011;5728;42.722;23.258;2022-12-28T07:42:29;7.33;;;4.63;;
11346;SDS011;5728;42.722;23.258;2022-12-28T07:44:56;6.50;;;4.40;;
11346;SDS011;5728;42.722;23.258;2022-12-28T07:47:23;10.40;;;4.20;;
11346;SDS011;5728;42.722;23.258;2022-12-28T07:49:49;8.57;;;4.83;;
11346;SDS011;5728;42.722;23.258;2022-12-28T07:52:17;7.27;;;5.47;;
11346;SDS011;5728;42.722;23.258;2022-12-28T07:54:44;4.90;;;4.23;;
11346;SDS011;5728;42.722;23.258;2022-12-28T07:57:11;6.77;;;4.57;;
11346;SDS011;5728;42.722;23.258;2022-12-28T07:59:38;7.10;;;5.27;;
11346;SDS011;5728;42.722;23.258;2022-12-28T08:02:04;7.53;;;5.20;;
11346;SDS011;5728;42.722;23.258;2022-12-28T08:04:31;14.60;;;5.50;;
11346;SDS011;5728;42.722;23.258;2022-12-28T08:06:58;17.97;;;12.83;;
11346;SDS011;5728;42.722;23.258;2022-12-28T08:09:26;49.43;;;33.83;;
11346;SDS011;5728;42.722;23.258;2022-12-28T08:11:53;12.23;;;5.70;;
11346;SDS011;5728;42.722;23.258;2022-12-28T08:14:20;7.23;;;5.07;;
11346;SDS011;5728;42.722;23.258;2022-12-28T08:16:47;5.47;;;4.43;;
11346;SDS011;5728;42.722;23.258;2022-12-28T08:19:14;5.23;;;4.13;;
11346;SDS011;5728;42.722;23.258;2022-12-28T08:21:41;5.70;;;4.50;;
11346;SDS011;5728;42.722;23.258;2022-12-28T08:24:09;6.07;;;4.63;;
11346;SDS011;5728;42.722;23.258;2022-12-28T08:26:41;9.00;;;4.70;;
11346;SDS011;5728;42.722;23.258;2022-12-28T08:29:08;7.47;;;4.60;;
11346;SDS011;5728;42.722;23.258;2022-12-28T08:31:38;5.83;;;4.33;;
11346;SDS011;5728;42.722;23.258;2022-12-28T08:34:09;6.97;;;4.43;;
11346;SDS011;5728;42.722;23.258;2022-12-28T08:36:38;10.63;;;4.40;;
11346;SDS011;5728;42.722;23.258;2022-12-28T08:39:05;7.97;;;4.90;;
11346;SDS011;5728;42.722;23.258;2022-12-28T08:41:32;6.80;;;4.27;;
11346;SDS011;5728;42.722;23.258;2022-12-28T08:44:00;6.27;;;4.80;;
11346;SDS011;5728;42.722;23.258;2022-12-28T08:46:28;11.47;;;5.23;;
11346;SDS011;5728;42.722;23.258;2022-12-28T08:48:56;6.37;;;4.63;;
11346;SDS011;5728;42.722;23.258;2022-12-28T08:51:25;7.03;;;4.53;;
11346;SDS011;5728;42.722;23.258;2022-12-28T08:53:55;5.60;;;4.63;;
11346;SDS011;5728;42.722;23.258;2022-12-28T08:56:22;6.50;;;4.50;;
11346;SDS011;5728;42.722;23.258;2022-12-28T08:58:51;8.73;;;4.67;;
11346;SDS011;5728;42.722;23.258;2022-12-28T09:01:20;14.53;;;4.57;;
11346;SDS011;5728;42.722;23.258;2022-12-28T09:03:49;6.23;;;4.17;;
11346;SDS011;5728;42.722;23.258;2022-12-28T09:06:18;6.13;;;4.33;;
11346;SDS011;5728;42.722;23.258;2022-12-28T09:08:47;9.23;;;5.00;;
11346;SDS011;5728;42.722;23.258;2022-12-28T09:11:14;6.67;;;4.60;;
11346;SDS011;5728;42.722;23.258;2022-12-28T09:13:41;8.03;;;4.73;;
11346;SDS011;5728;42.722;23.258;2022-12-28T09:16:09;6.60;;;4.80;;
11346;SDS011;5728;42.722;23.258;2022-12-28T09:18:39;6.63;;;5.00;;
11346;SDS011;5728;42.722;23.258;2022-12-28T09:21:08;7.67;;;5.20;;
11346;SDS011;5728;42.722;23.258;2022-12-28T09:23:38;7.27;;;5.43;;
11346;SDS011;5728;42.722;23.258;2022-12-28T09:26:06;9.13;;;5.47;;
11346;SDS011;5728;42.722;23.258;2022-12-28T09:28:33;7.23;;;5.10;;
11346;SDS011;5728;42.722;23.258;2022-12-28T09:31:01;10.03;;;5.77;;
11346;SDS011;5728;42.722;23.258;2022-12-28T09:33:29;10.90;;;5.87;;
11346;SDS011;5728;42.722;23.258;2022-12-28T09:36:14;12.03;;;6.83;;
11346;SDS011;5728;42.722;23.258;2022-12-28T09:38:43;12.10;;;7.40;;
11346;SDS011;5728;42.722;23.258;2022-12-28T09:41:10;8.73;;;6.83;;
11346;SDS011;5728;42.722;23.258;2022-12-28T09:43:39;11.97;;;7.83;;
11346;SDS011;5728;42.722;23.258;2022-12-28T09:46:10;10.47;;;7.00;;
11346;SDS011;5728;42.722;23.258;2022-12-28T09:48:37;9.00;;;6.63;;
11346;SDS011;5728;42.722;23.258;2022-12-28T09:51:07;12.07;;;7.10;;
11346;SDS011;5728;42.722;23.258;2022-12-28T09:53:36;8.63;;;6.17;;
11346;SDS011;5728;42.722;23.258;2022-12-28T09:56:04;15.13;;;6.23;;
11346;SDS011;5728;42.722;23.258;2022-12-28T09:58:42;7.27;;;4.70;;
11346;SDS011;5728;42.722;23.258;2022-12-28T10:01:10;7.57;;;5.57;;
11346;SDS011;5728;42.722;23.258;2022-12-28T10:03:40;9.23;;;5.23;;
11346;SDS011;5728;42.722;23.258;2022-12-28T10:06:10;12.00;;;5.33;;
11346;SDS011;5728;42.722;23.258;2022-12-28T10:08:41;5.90;;;3.80;;
11346;SDS011;5728;42.722;23.258;2022-12-28T10:11:11;6.73;;;3.63;;
11346;SDS011;5728;42.722;23.258;2022-12-28T10:13:42;5.77;;;3.87;;
11346;SDS011;5728;42.722;23.258;2022-12-28T10:16:10;9.10;;;4.27;;
11346;SDS011;5728;42.722;23.258;2022-12-28T10:18:42;10.57;;;4.50;;
11346;SDS011;5728;42.722;23.258;2022-12-28T10:21:10;5.13;;;4.63;;
11346;SDS011;5728;42.722;23.258;2022-12-28T10:23:38;6.67;;;4.80;;
11346;SDS011;5728;42.722;23.258;2022-12-28T10:26:09;5.13;;;4.23;;
11346;SDS011;5728;42.722;23.258;2022-12-28T10:28:43;6.23;;;4.50;;
11346;SDS011;5728;42.722;23.258;2022-12-28T10:31:13;9.57;;;5.30;;
11346;SDS011;5728;42.722;23.258;2022-12-28T10:33:48;6.80;;;4.60;;
11346;SDS011;5728;42.722;23.258;2022-12-28T10:36:16;6.90;;;4.80;;
11346;SDS011;5728;42.722;23.258;2022-12-28T10:38:48;6.00;;;4.70;;
11346;SDS011;5728;42.722;23.258;2022-12-28T10:41:17;10.20;;;4.53;;
11346;SDS011;5728;42.722;23.258;2022-12-28T10:43:45;5.73;;;4.47;;
11346;SDS011;5728;42.722;23.258;2022-12-28T10:46:17;7.73;;;4.30;;
11346;SDS011;5728;42.722;23.258;2022-12-28T10:48:46;9.90;;;4.07;;
11346;SDS011;5728;42.722;23.258;2022-12-28T10:51:17;5.43;;;3.83;;
11346;SDS011;5728;42.722;23.258;2022-12-28T10:53:46;5.73;;;4.00;;
11346;SDS011;5728;42.722;23.258;2022-12-28T10:56:21;7.53;;;4.57;;
11346;SDS011;5728;42.722;23.258;2022-12-28T10:58:50;15.90;;;4.60;;
11346;SDS011;5728;42.722;23.258;2022-12-28T11:01:22;8.53;;;5.17;;
11346;SDS011;5728;42.722;23.258;2022-12-28T11:04:02;8.37;;;4.20;;
11346;SDS011;5728;42.722;23.258;2022-12-28T11:06:31;5.90;;;3.93;;
11346;SDS011;5728;42.722;23.258;2022-12-28T11:09:05;7.50;;;4.43;;
11346;SDS011;5728;42.722;23.258;2022-12-28T11:11:40;6.63;;;4.33;;
11346;SDS011;5728;42.722;23.258;2022-12-28T11:14:12;8.80;;;5.37;;
11346;SDS011;5728;42.722;23.258;2022-12-28T11:16:43;9.70;;;4.60;;
11346;SDS011;5728;42.722;23.258;2022-12-28T11:19:10;5.87;;;4.70;;
11346;SDS011;5728;42.722;23.258;2022-12-28T11:21:38;9.57;;;5.17;;
11346;SDS011;5728;42.722;23.258;2022-12-28T11:24:09;8.73;;;4.30;;
11346;SDS011;5728;42.722;23.258;2022-12-28T11:26:39;7.00;;;4.70;;
11346;SDS011;5728;42.722;23.258;2022-12-28T11:29:08;8.80;;;4.80;;
11346;SDS011;5728;42.722;23.258;2022-12-28T11:31:40;13.37;;;5.33;;
11346;SDS011;5728;42.722;23.258;2022-12-28T11:34:13;13.37;;;5.50;;
11346;SDS011;5728;42.722;23.258;2022-12-28T11:36:43;12.17;;;5.10;;
11346;SDS011;5728;42.722;23.258;2022-12-28T11:42:10;9.03;;;5.53;;
11346;SDS011;5728;42.722;23.258;2022-12-28T11:44:48;8.30;;;5.07;;
11346;SDS011;5728;42.722;23.258;2022-12-28T11:47:26;5.90;;;4.50;;
11346;SDS011;5728;42.722;23.258;2022-12-28T11:53:18;9.10;;;5.40;;
11346;SDS011;5728;42.722;23.258;2022-12-28T11:56:05;10.53;;;6.40;;
11346;SDS011;5728;42.722;23.258;2022-12-28T12:10:12;10.57;;;8.07;;
11346;SDS011;5728;42.722;23.258;2022-12-28T12:12:55;13.40;;;8.60;;
11346;SDS011;5728;42.722;23.258;2022-12-28T12:15:25;14.03;;;8.93;;
11346;SDS011;5728;42.722;23.258;2022-12-28T12:17:59;13.70;;;9.53;;
11346;SDS011;5728;42.722;23.258;2022-12-28T12:20:41;16.43;;;10.40;;
11346;SDS011;5728;42.722;23.258;2022-12-28T12:23:16;13.30;;;7.83;;
11346;SDS011;5728;42.722;23.258;2022-12-28T12:25:49;12.90;;;8.30;;
11346;SDS011;5728;42.722;23.258;2022-12-28T12:28:26;14.70;;;9.73;;
11346;SDS011;5728;42.722;23.258;2022-12-28T12:30:59;18.40;;;11.20;;
11346;SDS011;5728;42.722;23.258;2022-12-28T12:33:29;24.37;;;11.47;;
11346;SDS011;5728;42.722;23.258;2022-12-28T12:36:01;18.33;;;12.03;;
11346;SDS011;5728;42.722;23.258;2022-12-28T12:38:41;13.93;;;9.60;;
11346;SDS011;5728;42.722;23.258;2022-12-28T12:41:24;15.20;;;9.17;;
11346;SDS011;5728;42.722;23.258;2022-12-28T12:44:10;20.37;;;9.33;;
11346;SDS011;5728;42.722;23.258;2022-12-28T12:46:57;13.10;;;7.70;;
11346;SDS011;5728;42.722;23.258;2022-12-28T12:49:41;13.90;;;9.10;;
11346;SDS011;5728;42.722;23.258;2022-12-28T12:52:20;15.80;;;10.03;;
11346;SDS011;5728;42.722;23.258;2022-12-28T12:55:01;18.43;;;10.00;;
11346;SDS011;5728;42.722;23.258;2022-12-28T12:57:45;17.67;;;9.37;;
11346;SDS011;5728;42.722;23.258;2022-12-28T13:00:20;13.37;;;8.80;;
11346;SDS011;5728;42.722;23.258;2022-12-28T13:05:50;13.20;;;8.87;;
11346;SDS011;5728;42.722;23.258;2022-12-28T13:08:21;16.03;;;10.93;;
11346;SDS011;5728;42.722;23.258;2022-12-28T13:10:51;21.63;;;11.93;;
11346;SDS011;5728;42.722;23.258;2022-12-28T13:13:22;16.23;;;10.00;;
11346;SDS011;5728;42.722;23.258;2022-12-28T13:15:57;15.60;;;10.63;;
11346;SDS011;5728;42.722;23.258;2022-12-28T13:18:27;14.93;;;9.27;;
11346;SDS011;5728;42.722;23.258;2022-12-28T13:20:54;12.30;;;8.67;;
11346;SDS011;5728;42.722;23.258;2022-12-28T13:23:22;16.77;;;10.03;;
11346;SDS011;5728;42.722;23.258;2022-12-28T13:25:50;16.37;;;10.77;;
11346;SDS011;5728;42.722;23.258;2022-12-28T13:28:19;12.87;;;9.20;;
11346;SDS011;5728;42.722;23.258;2022-12-28T13:30:53;14.93;;;10.87;;
11346;SDS011;5728;42.722;23.258;2022-12-28T13:33:24;20.87;;;10.97;;
11346;SDS011;5728;42.722;23.258;2022-12-28T13:36:03;17.83;;;10.40;;
11346;SDS011;5728;42.722;23.258;2022-12-28T13:38:36;17.03;;;10.60;;
11346;SDS011;5728;42.722;23.258;2022-12-28T13:41:03;15.20;;;9.97;;
11346;SDS011;5728;42.722;23.258;2022-12-28T13:43:40;14.83;;;10.47;;
11346;SDS011;5728;42.722;23.258;2022-12-28T13:46:27;18.53;;;10.93;;
11346;SDS011;5728;42.722;23.258;2022-12-28T13:48:55;20.27;;;10.83;;
11346;SDS011;5728;42.722;23.258;2022-12-28T13:51:23;19.87;;;10.83;;
11346;SDS011;5728;42.722;23.258;2022-12-28T13:53:54;21.80;;;11.37;;
11346;SDS011;5728;42.722;23.258;2022-12-28T13:56:25;15.83;;;9.73;;
11346;SDS011;5728;42.722;23.258;2022-12-28T13:58:56;16.83;;;10.23;;
11346;SDS011;5728;42.722;23.258;2022-12-28T14:01:28;16.73;;;9.30;;
11346;SDS011;5728;42.722;23.258;2022-12-28T14:04:00;17.73;;;10.37;;
11346;SDS011;5728;42.722;23.258;2022-12-28T14:06:30;16.87;;;9.47;;
11346;SDS011;5728;42.722;23.258;2022-12-28T14:08:57;18.53;;;9.27;;
11346;SDS011;5728;42.722;23.258;2022-12-28T14:11:25;17.87;;;9.50;;
11346;SDS011;5728;42.722;23.258;2022-12-28T14:13:53;16.97;;;8.53;;
11346;SDS011;5728;42.722;23.258;2022-12-28T14:16:21;18.80;;;9.10;;
11346;SDS011;5728;42.722;23.258;2022-12-28T14:18:51;22.27;;;11.93;;
11346;SDS011;5728;42.722;23.258;2022-12-28T14:24:03;13.20;;;7.00;;
11346;SDS011;5728;42.722;23.258;2022-12-28T14:26:31;13.83;;;8.30;;
11346;SDS011;5728;42.722;23.258;2022-12-28T14:28:59;14.13;;;7.73;;
11346;SDS011;5728;42.722;23.258;2022-12-28T14:31:27;14.77;;;8.93;;
11346;SDS011;5728;42.722;23.258;2022-12-28T14:33:57;14.40;;;8.47;;
11346;SDS011;5728;42.722;23.258;2022-12-28T14:36:26;17.13;;;9.43;;
11346;SDS011;5728;42.722;23.258;2022-12-28T14:38:56;19.97;;;9.87;;
11346;SDS011;5728;42.722;23.258;2022-12-28T14:41:27;15.20;;;9.97;;
11346;SDS011;5728;42.722;23.258;2022-12-28T14:43:55;17.63;;;9.43;;
11346;SDS011;5728;42.722;23.258;2022-12-28T14:46:29;18.17;;;10.37;;
11346;SDS011;5728;42.722;23.258;2022-12-28T14:48:59;16.30;;;10.83;;
11346;SDS011;5728;42.722;23.258;2022-12-28T14:51:46;23.60;;;12.33;;
11346;SDS011;5728;42.722;23.258;2022-12-28T14:54:15;29.77;;;18.93;;
11346;SDS011;5728;42.722;23.258;2022-12-28T14:56:45;27.20;;;15.60;;
11346;SDS011;5728;42.722;23.258;2022-12-28T14:59:18;27.63;;;16.83;;
11346;SDS011;5728;42.722;23.258;2022-12-28T15:01:50;30.47;;;15.83;;
11346;SDS011;5728;42.722;23.258;2022-12-28T15:04:25;22.43;;;13.53;;
11346;SDS011;5728;42.722;23.258;2022-12-28T15:06:54;26.87;;;13.87;;
11346;SDS011;5728;42.722;23.258;2022-12-28T15:09:22;31.90;;;13.67;;
11346;SDS011;5728;42.722;23.258;2022-12-28T15:11:49;22.87;;;13.87;;
11346;SDS011;5728;42.722;23.258;2022-12-28T15:14:32;32.73;;;15.33;;
11346;SDS011;5728;42.722;23.258;2022-12-28T15:16:59;55.77;;;29.17;;
11346;SDS011;5728;42.722;23.258;2022-12-28T15:19:27;44.03;;;26.27;;
11346;SDS011;5728;42.722;23.258;2022-12-28T15:21:54;50.03;;;28.53;;
11346;SDS011;5728;42.722;23.258;2022-12-28T15:24:21;48.67;;;28.80;;
11346;SDS011;5728;42.722;23.258;2022-12-28T15:26:48;40.13;;;25.00;;